createdAt,value
2018-01-24T00:00:55.532Z,4.27
2018-01-24T00:03:24.741Z,5.90
2018-01-24T00:05:53.946Z,5.50
2018-01-24T00:08:23.182Z,6.60
2018-01-24T00:10:52.383Z,11.63
2018-01-24T00:13:21.590Z,4.53
2018-01-24T00:15:50.764Z,5.40
2018-01-24T00:18:20.065Z,7.67
2018-01-24T00:20:49.249Z,5.00
2018-01-24T00:23:18.461Z,5.77
2018-01-24T00:25:47.706Z,6.70
2018-01-24T00:28:16.901Z,6.50
2018-01-24T00:30:46.070Z,9.50
2018-01-24T00:33:15.647Z,8.33
2018-01-24T00:35:44.843Z,14.37
2018-01-24T00:38:14.036Z,5.90
2018-01-24T00:40:43.233Z,5.80
2018-01-24T00:43:12.437Z,7.20
2018-01-24T00:45:41.623Z,7.93
2018-01-24T00:48:10.833Z,8.80
2018-01-24T00:50:40.024Z,6.90
2018-01-24T00:53:09.252Z,7.80
2018-01-24T00:55:38.448Z,6.07
2018-01-24T00:58:07.650Z,10.13
2018-01-24T01:00:36.838Z,8.10
2018-01-24T01:03:06.025Z,4.77
2018-01-24T01:05:35.235Z,6.07
2018-01-24T01:08:04.413Z,3.43
2018-01-24T01:10:33.614Z,6.10
2018-01-24T01:13:02.917Z,7.00
2018-01-24T01:15:32.116Z,3.33
2018-01-24T01:18:01.313Z,6.77
2018-01-24T01:20:30.518Z,3.20
2018-01-24T01:22:59.700Z,6.50
2018-01-24T01:25:28.901Z,6.77
2018-01-24T01:27:58.089Z,6.90
2018-01-24T01:30:27.297Z,5.43
2018-01-24T01:32:56.522Z,6.73
2018-01-24T01:35:25.728Z,4.17
2018-01-24T01:37:54.916Z,3.67
2018-01-24T01:40:24.219Z,5.20
2018-01-24T01:42:53.453Z,3.60
2018-01-24T01:45:22.657Z,5.97
2018-01-24T01:47:51.841Z,4.23
2018-01-24T01:50:21.042Z,7.33
2018-01-24T01:52:50.308Z,4.43
2018-01-24T01:55:19.519Z,2.90
2018-01-24T01:57:48.710Z,4.37
2018-01-24T02:00:18.004Z,3.33
2018-01-24T02:02:47.205Z,5.57
2018-01-24T02:05:16.422Z,5.60
2018-01-24T02:07:45.614Z,6.03
2018-01-24T02:10:14.930Z,4.00
2018-01-24T02:12:44.123Z,4.73
2018-01-24T02:15:13.333Z,4.93
2018-01-24T02:17:42.512Z,4.17
2018-01-24T02:20:11.729Z,4.70
2018-01-24T02:22:40.916Z,5.83
2018-01-24T02:25:10.140Z,4.80
2018-01-24T02:27:39.320Z,5.53
2018-01-24T02:30:08.578Z,4.33
2018-01-24T02:32:37.883Z,5.30
2018-01-24T02:35:07.090Z,3.77
2018-01-24T02:37:36.285Z,3.47
2018-01-24T02:40:05.579Z,8.10
2018-01-24T02:42:34.922Z,5.10
2018-01-24T02:45:04.131Z,8.90
2018-01-24T02:47:33.378Z,5.53
2018-01-24T02:50:02.586Z,7.03
2018-01-24T02:52:31.774Z,5.03
2018-01-24T02:55:01.079Z,6.17
2018-01-24T02:57:30.355Z,5.80
2018-01-24T02:59:59.538Z,4.50
2018-01-24T03:02:28.796Z,5.67
2018-01-24T03:04:57.970Z,4.37
2018-01-24T03:07:27.209Z,2.97
2018-01-24T03:09:59.035Z,4.80
2018-01-24T03:12:28.245Z,3.60
2018-01-24T03:14:57.524Z,2.57
2018-01-24T03:17:26.748Z,6.07
2018-01-24T03:19:55.961Z,3.73
2018-01-24T03:22:25.184Z,3.70
2018-01-24T03:24:54.376Z,2.60
2018-01-24T03:27:23.616Z,4.20
2018-01-24T03:29:52.812Z,3.27
2018-01-24T03:32:22.018Z,1.93
2018-01-24T03:34:51.312Z,4.77
2018-01-24T03:37:20.520Z,7.00
2018-01-24T03:39:49.701Z,6.80
2018-01-24T03:42:19.007Z,3.43
2018-01-24T03:44:48.181Z,4.70
2018-01-24T03:47:17.385Z,4.60
2018-01-24T03:49:46.565Z,6.07
2018-01-24T03:52:15.778Z,5.43
2018-01-24T03:54:44.972Z,8.50
2018-01-24T03:57:14.171Z,3.30
2018-01-24T03:59:43.356Z,3.00
2018-01-24T04:02:12.554Z,6.07
2018-01-24T04:04:41.788Z,4.70
2018-01-24T04:07:10.994Z,8.63
2018-01-24T04:09:40.186Z,7.93
2018-01-24T04:12:09.389Z,7.63
2018-01-24T04:14:38.574Z,4.90
2018-01-24T04:17:07.783Z,3.50
2018-01-24T04:19:36.982Z,3.43
2018-01-24T04:22:06.277Z,4.73
2018-01-24T04:24:35.475Z,2.60
2018-01-24T04:27:04.685Z,2.30
2018-01-24T04:29:33.909Z,4.40
2018-01-24T04:32:03.119Z,4.30
2018-01-24T04:34:32.367Z,3.60
2018-01-24T04:37:01.568Z,10.00
2018-01-24T04:39:30.902Z,4.17
2018-01-24T04:42:00.113Z,5.37
2018-01-24T04:44:29.307Z,6.87
2018-01-24T04:46:58.519Z,5.50
2018-01-24T04:49:27.755Z,5.40
2018-01-24T04:51:56.958Z,3.07
2018-01-24T04:54:26.146Z,2.43
2018-01-24T04:56:55.338Z,3.70
2018-01-24T04:59:24.551Z,3.53
2018-01-24T05:01:53.748Z,4.47
2018-01-24T05:04:23.121Z,4.93
2018-01-24T05:06:52.314Z,7.90
2018-01-24T05:09:21.514Z,6.30
2018-01-24T05:11:50.710Z,3.60
2018-01-24T05:14:19.913Z,10.93
2018-01-24T05:16:49.099Z,3.80
2018-01-24T05:19:18.317Z,4.77
2018-01-24T05:21:48.214Z,3.40
2018-01-24T05:24:17.428Z,3.60
2018-01-24T05:26:46.758Z,8.10
2018-01-24T05:29:16.090Z,5.17
2018-01-24T05:31:45.325Z,4.03
2018-01-24T05:34:14.551Z,5.30
2018-01-24T05:36:43.748Z,5.63
2018-01-24T05:39:12.945Z,4.43
2018-01-24T05:41:42.133Z,4.37
2018-01-24T05:44:11.445Z,6.63
2018-01-24T05:46:40.640Z,6.30
2018-01-24T05:49:09.894Z,7.27
2018-01-24T05:51:39.090Z,5.43
2018-01-24T05:54:08.341Z,7.73
2018-01-24T05:56:37.523Z,4.90
2018-01-24T05:59:06.836Z,9.43
2018-01-24T06:01:36.014Z,3.90
2018-01-24T06:04:05.285Z,4.70
2018-01-24T06:06:34.474Z,5.33
2018-01-24T06:09:03.673Z,5.60
2018-01-24T06:11:32.860Z,5.00
2018-01-24T06:14:02.068Z,9.17
2018-01-24T06:16:31.258Z,6.17
2018-01-24T06:19:00.523Z,3.07
2018-01-24T06:21:29.821Z,10.33
2018-01-24T06:23:59.048Z,8.40
2018-01-24T06:26:28.248Z,5.73
2018-01-24T06:28:57.554Z,5.57
2018-01-24T06:31:26.752Z,7.60
2018-01-24T06:33:55.945Z,9.77
2018-01-24T06:36:25.132Z,6.77
2018-01-24T06:38:54.349Z,11.60
2018-01-24T06:41:23.537Z,5.00
2018-01-24T06:43:52.749Z,6.73
2018-01-24T06:46:21.948Z,9.20
2018-01-24T06:48:51.154Z,13.53
2018-01-24T06:51:20.336Z,9.87
2018-01-24T06:53:49.637Z,10.43
2018-01-24T06:56:18.832Z,9.80
2018-01-24T06:58:48.036Z,8.67
2018-01-24T07:01:17.235Z,12.50
2018-01-24T07:03:46.423Z,8.67
2018-01-24T07:06:15.636Z,9.00
2018-01-24T07:08:44.835Z,12.20
2018-01-24T07:11:14.029Z,13.07
2018-01-24T07:13:49.370Z,14.57
2018-01-24T07:16:18.605Z,16.10
2018-01-24T07:18:47.955Z,10.17
2018-01-24T07:21:17.188Z,12.23
2018-01-24T07:23:47.286Z,13.00
2018-01-24T07:26:16.488Z,9.97
2018-01-24T07:28:45.686Z,8.83
2018-01-24T07:31:14.897Z,10.10
2018-01-24T07:33:44.097Z,8.47
2018-01-24T07:36:13.308Z,10.37
2018-01-24T07:38:42.510Z,13.07
2018-01-24T07:41:11.834Z,9.77
2018-01-24T07:43:41.035Z,7.97
2018-01-24T07:46:10.227Z,9.00
2018-01-24T07:48:39.406Z,15.27
2018-01-24T07:51:08.650Z,12.53
2018-01-24T07:53:37.837Z,10.40
2018-01-24T07:56:07.047Z,14.63
2018-01-24T07:58:36.248Z,10.60
2018-01-24T08:01:05.669Z,8.10
2018-01-24T08:03:34.867Z,15.00
2018-01-24T08:06:04.082Z,19.73
2018-01-24T08:08:33.318Z,12.93
2018-01-24T08:11:02.526Z,13.00
2018-01-24T08:13:31.714Z,10.03
2018-01-24T08:16:00.931Z,11.90
2018-01-24T08:18:30.109Z,10.67
2018-01-24T08:20:59.372Z,13.23
2018-01-24T08:23:28.560Z,10.20
2018-01-24T08:25:57.756Z,5.83
2018-01-24T08:28:26.946Z,11.20
2018-01-24T08:30:56.278Z,5.60
2018-01-24T08:33:25.462Z,9.37
2018-01-24T08:35:54.758Z,4.70
2018-01-24T08:38:23.942Z,8.37
2018-01-24T08:40:53.149Z,5.57
2018-01-24T08:43:22.360Z,6.73
2018-01-24T08:45:51.554Z,9.67
2018-01-24T08:48:20.894Z,6.93
2018-01-24T08:50:50.101Z,8.67
2018-01-24T08:53:19.310Z,9.20
2018-01-24T08:55:48.501Z,4.60
2018-01-24T08:58:17.705Z,7.40
2018-01-24T09:00:58.593Z,5.27
2018-01-24T09:03:40.369Z,6.40
2018-01-24T09:06:36.362Z,4.80
2018-01-24T09:09:17.401Z,4.53
2018-01-24T09:11:58.503Z,4.30
2018-01-24T09:14:39.533Z,4.23
2018-01-24T09:17:20.310Z,4.30
2018-01-24T09:20:01.282Z,5.33
2018-01-24T09:22:42.321Z,5.63
2018-01-24T09:25:11.658Z,4.73
2018-01-24T09:27:40.876Z,5.50
2018-01-24T09:30:10.495Z,4.60
2018-01-24T09:32:39.728Z,5.93
2018-01-24T09:35:08.914Z,4.10
2018-01-24T09:37:38.121Z,5.23
2018-01-24T09:40:07.305Z,5.03
2018-01-24T09:42:36.506Z,5.20
2018-01-24T09:45:05.722Z,6.87
2018-01-24T09:47:34.936Z,5.97
2018-01-24T09:50:04.121Z,5.27
2018-01-24T09:52:33.413Z,4.70
2018-01-24T09:55:02.622Z,4.57
2018-01-24T09:57:31.809Z,4.23
2018-01-24T10:00:01.019Z,3.87
2018-01-24T10:02:30.254Z,4.93
2018-01-24T10:04:59.530Z,5.53
2018-01-24T10:07:28.803Z,4.93
2018-01-24T10:09:58.017Z,4.20
2018-01-24T10:12:27.302Z,3.63
2018-01-24T10:14:56.504Z,6.83
2018-01-24T10:17:25.700Z,4.20
2018-01-24T10:19:54.901Z,4.67
2018-01-24T10:22:24.086Z,7.33
2018-01-24T10:24:53.396Z,3.00
2018-01-24T10:27:28.453Z,5.60
2018-01-24T10:29:57.392Z,13.43
2018-01-24T10:32:25.468Z,3.90
2018-01-24T10:34:53.515Z,5.13
2018-01-24T10:37:21.885Z,3.47
2018-01-24T10:39:50.205Z,3.10
2018-01-24T10:42:17.746Z,2.90
2018-01-24T10:44:45.702Z,3.53
2018-01-24T10:47:14.006Z,4.23
2018-01-24T10:49:43.153Z,3.97
2018-01-24T10:52:10.845Z,7.33
2018-01-24T10:54:38.898Z,4.33
2018-01-24T10:57:07.206Z,3.30
2018-01-24T10:59:35.591Z,5.83
2018-01-24T11:02:03.906Z,4.23
2018-01-24T11:04:32.322Z,3.13
2018-01-24T11:07:00.631Z,5.30
2018-01-24T11:09:28.975Z,4.23
2018-01-24T11:11:57.288Z,3.07
2018-01-24T11:14:25.670Z,2.37
2018-01-24T11:16:54.830Z,4.50
2018-01-24T11:19:23.147Z,3.10
2018-01-24T11:21:50.698Z,2.37
2018-01-24T11:24:19.016Z,2.57
2018-01-24T11:26:47.423Z,1.80
2018-01-24T11:29:15.772Z,2.23
2018-01-24T11:31:44.092Z,2.23
2018-01-24T11:34:12.395Z,2.60
2018-01-24T11:36:41.470Z,2.30
2018-01-24T11:39:09.007Z,3.40
2018-01-24T11:41:37.337Z,3.10
2018-01-24T11:44:04.890Z,2.20
2018-01-24T11:46:32.929Z,2.13
2018-01-24T11:49:01.243Z,2.03
2018-01-24T11:51:29.562Z,2.43
2018-01-24T11:53:57.869Z,3.37
2018-01-24T11:56:26.203Z,2.40
2018-01-24T11:58:54.524Z,2.97
2018-01-24T12:01:22.881Z,2.60
2018-01-24T12:03:50.541Z,3.33
2018-01-24T12:06:18.872Z,3.50
2018-01-24T12:08:47.169Z,3.00
2018-01-24T12:11:14.735Z,4.23
2018-01-24T12:13:43.180Z,1.70
2018-01-24T12:16:11.522Z,6.93
2018-01-24T12:18:39.830Z,2.80
2018-01-24T12:21:07.858Z,3.60
2018-01-24T12:23:35.423Z,2.80
2018-01-24T12:26:03.754Z,2.63
2018-01-24T12:28:32.076Z,2.30
2018-01-24T12:31:00.037Z,2.47
2018-01-24T12:33:28.341Z,1.70
2018-01-24T12:35:56.677Z,1.80
2018-01-24T12:38:25.025Z,2.30
2018-01-24T12:40:53.414Z,2.13
2018-01-24T12:43:21.727Z,1.70
2018-01-24T12:45:50.062Z,1.70
2018-01-24T12:48:18.366Z,1.83
2018-01-24T12:50:46.719Z,3.77
2018-01-24T12:53:15.035Z,1.90
2018-01-24T12:55:43.356Z,2.00
2018-01-24T12:58:11.705Z,3.63
2018-01-24T13:00:40.377Z,2.27
2018-01-24T13:03:08.341Z,1.80
2018-01-24T13:05:36.695Z,6.63
2018-01-24T13:08:04.760Z,1.70
2018-01-24T13:10:33.074Z,1.90
2018-01-24T13:13:00.632Z,3.07
2018-01-24T13:15:28.566Z,3.33
2018-01-24T13:17:57.047Z,2.50
2018-01-24T13:20:25.345Z,2.60
2018-01-24T13:22:53.658Z,1.77
2018-01-24T13:25:22.005Z,4.00
2018-01-24T13:27:50.519Z,2.00
2018-01-24T13:30:18.450Z,3.73
2018-01-24T13:32:46.881Z,1.57
2018-01-24T13:35:15.926Z,2.17
2018-01-24T13:37:43.569Z,2.03
2018-01-24T13:40:11.570Z,1.83
2018-01-24T13:42:39.138Z,2.10
2018-01-24T13:45:07.814Z,3.80
2018-01-24T13:47:35.367Z,2.30
2018-01-24T13:50:03.671Z,1.70
2018-01-24T13:52:32.006Z,2.20
2018-01-24T13:55:00.409Z,1.53
2018-01-24T13:57:28.873Z,1.73
2018-01-24T13:59:56.809Z,1.50
2018-01-24T14:02:24.374Z,17.90
2018-01-24T14:04:52.310Z,9.83
2018-01-24T14:07:20.356Z,24.37
2018-01-24T14:09:47.891Z,12.83
2018-01-24T14:12:15.476Z,2.73
2018-01-24T14:14:43.053Z,1.70
2018-01-24T14:17:11.004Z,6.47
2018-01-24T14:19:39.387Z,9.93
2018-01-24T14:22:07.742Z,11.00
2018-01-24T14:24:36.052Z,5.90
2018-01-24T14:27:04.380Z,3.97
2018-01-24T14:29:32.692Z,3.30
2018-01-24T14:32:01.018Z,2.00
2018-01-24T14:34:29.333Z,3.27
2018-01-24T14:36:57.727Z,4.87
2018-01-24T14:39:26.058Z,4.17
2018-01-24T14:41:54.370Z,2.63
2018-01-24T14:44:22.692Z,3.23
2018-01-24T14:46:51.009Z,3.03
2018-01-24T14:49:19.327Z,9.03
2018-01-24T14:51:47.646Z,2.80
2018-01-24T14:54:16.020Z,4.30
2018-01-24T14:56:44.413Z,3.03
2018-01-24T14:59:12.766Z,8.63
2018-01-24T15:01:40.694Z,2.10
2018-01-24T15:04:08.256Z,2.90
2018-01-24T15:06:36.193Z,5.67
2018-01-24T15:09:04.516Z,3.10
2018-01-24T15:11:32.826Z,2.90
2018-01-24T15:14:01.898Z,4.50
2018-01-24T15:16:29.478Z,4.23
2018-01-24T15:18:58.563Z,4.53
2018-01-24T15:21:27.616Z,3.20
2018-01-24T15:23:55.942Z,3.63
2018-01-24T15:26:24.992Z,2.53
2018-01-24T15:28:52.567Z,2.90
2018-01-24T15:31:20.887Z,9.43
2018-01-24T15:33:49.234Z,10.90
2018-01-24T15:36:17.645Z,5.00
2018-01-24T15:38:46.040Z,5.77
2018-01-24T15:41:14.038Z,4.17
2018-01-24T15:43:42.388Z,4.13
2018-01-24T15:46:10.793Z,4.77
2018-01-24T15:48:39.095Z,2.63
2018-01-24T15:51:07.490Z,3.73
2018-01-24T15:53:35.789Z,2.73
2018-01-24T15:56:04.160Z,4.00
2018-01-24T15:58:32.516Z,4.30
2018-01-24T16:01:00.860Z,3.77
2018-01-24T16:03:30.116Z,5.70
2018-01-24T16:05:58.077Z,2.60
2018-01-24T16:08:26.041Z,2.70
2018-01-24T16:10:53.993Z,2.57
2018-01-24T16:13:22.301Z,6.07
2018-01-24T16:15:50.891Z,6.53
2018-01-24T16:18:18.877Z,7.77
2018-01-24T16:20:47.225Z,6.30
2018-01-24T16:23:15.707Z,4.90
2018-01-24T16:25:44.211Z,13.20
2018-01-24T16:28:12.517Z,13.43
2018-01-24T16:30:40.535Z,7.27
2018-01-24T16:33:08.878Z,7.40
2018-01-24T16:35:37.270Z,12.23
2018-01-24T16:38:05.611Z,6.90
2018-01-24T16:40:33.986Z,4.90
2018-01-24T16:43:03.117Z,10.83
2018-01-24T16:45:31.441Z,8.00
2018-01-24T16:47:59.383Z,7.37
2018-01-24T16:50:27.718Z,8.90
2018-01-24T16:52:57.051Z,14.10
2018-01-24T16:55:25.395Z,13.43
2018-01-24T16:57:53.692Z,13.40
2018-01-24T17:00:22.723Z,12.70
2018-01-24T17:02:51.395Z,15.77
2018-01-24T17:05:18.971Z,10.87
2018-01-24T17:07:46.930Z,8.27
2018-01-24T17:10:15.272Z,11.60
2018-01-24T17:12:43.579Z,10.30
2018-01-24T17:15:11.966Z,15.77
2018-01-24T17:17:40.315Z,10.80
2018-01-24T17:20:08.632Z,8.40
2018-01-24T17:22:36.949Z,8.17
2018-01-24T17:25:05.245Z,8.37
2018-01-24T17:27:33.625Z,5.23
2018-01-24T17:30:01.942Z,7.00
2018-01-24T17:32:30.278Z,9.10
2018-01-24T17:34:58.600Z,5.93
2018-01-24T17:37:26.944Z,9.27
2018-01-24T17:39:55.986Z,5.37
2018-01-24T17:42:23.564Z,6.13
2018-01-24T17:44:51.898Z,4.10
2018-01-24T17:47:20.269Z,4.53
2018-01-24T17:49:48.571Z,3.03
2018-01-24T17:52:16.895Z,3.40
2018-01-24T17:54:45.451Z,4.00
2018-01-24T17:57:13.784Z,6.90
2018-01-24T17:59:42.163Z,4.27
2018-01-24T18:02:10.875Z,6.20
2018-01-24T18:04:38.527Z,7.27
2018-01-24T18:07:06.956Z,11.93
2018-01-24T18:09:35.315Z,9.13
2018-01-24T18:12:20.936Z,16.73
2018-01-24T18:14:50.532Z,8.33
2018-01-24T18:17:18.912Z,11.47
2018-01-24T18:19:47.941Z,16.47
2018-01-24T18:22:16.330Z,9.60
2018-01-24T18:24:44.696Z,10.17
2018-01-24T18:27:13.697Z,8.03
2018-01-24T18:29:41.463Z,9.37
2018-01-24T18:32:12.416Z,10.83
2018-01-24T18:34:41.567Z,8.73
2018-01-24T18:37:10.013Z,10.97
2018-01-24T18:39:37.613Z,8.70
2018-01-24T18:42:05.697Z,16.97
2018-01-24T18:44:34.070Z,14.07
2018-01-24T18:47:02.528Z,13.90
2018-01-24T18:49:30.515Z,13.30
2018-01-24T18:51:59.720Z,15.03
2018-01-24T18:54:27.404Z,15.97
2018-01-24T18:56:55.794Z,20.23
2018-01-24T18:59:23.840Z,16.97
2018-01-24T19:01:52.324Z,17.70
2018-01-24T19:04:20.850Z,15.73
2018-01-24T19:06:49.798Z,12.97
2018-01-24T19:09:18.795Z,12.70
2018-01-24T19:11:46.869Z,15.13
2018-01-24T19:14:15.621Z,11.77
2018-01-24T19:16:43.707Z,17.43
2018-01-24T19:19:11.763Z,20.70
2018-01-24T19:21:40.068Z,9.40
2018-01-24T19:24:07.643Z,13.53
2018-01-24T19:26:37.296Z,17.03
2018-01-24T19:29:05.301Z,10.67
2018-01-24T19:31:33.605Z,14.87
2018-01-24T19:34:02.102Z,26.57
2018-01-24T19:36:30.238Z,14.40
2018-01-24T19:38:58.733Z,26.50
2018-01-24T19:41:27.070Z,20.57
2018-01-24T19:43:55.831Z,10.80
2018-01-24T19:46:23.815Z,18.87
2018-01-24T19:48:53.674Z,25.50
2018-01-24T19:51:22.383Z,18.40
2018-01-24T19:53:50.837Z,19.80
2018-01-24T19:56:19.612Z,12.73
2018-01-24T19:58:48.680Z,17.33
2018-01-24T20:01:16.690Z,16.90
2018-01-24T20:03:45.110Z,14.93
2018-01-24T20:06:13.505Z,18.73
2018-01-24T20:08:41.454Z,13.20
2018-01-24T20:11:09.389Z,15.00
2018-01-24T20:13:37.759Z,22.13
2018-01-24T20:16:05.711Z,15.93
2018-01-24T20:18:33.684Z,14.10
2018-01-24T20:21:02.813Z,16.60
2018-01-24T20:23:31.121Z,13.60
2018-01-24T20:25:59.116Z,15.47
2018-01-24T20:28:27.563Z,17.27
2018-01-24T20:30:55.162Z,11.73
2018-01-24T20:33:23.512Z,18.03
2018-01-24T20:35:51.895Z,19.33
2018-01-24T20:38:20.378Z,16.33
2018-01-24T20:40:48.759Z,19.33
2018-01-24T20:43:17.082Z,18.37
2018-01-24T20:45:45.507Z,17.60
2018-01-24T20:48:13.856Z,19.77
2018-01-24T20:50:42.178Z,18.03
2018-01-24T20:53:10.533Z,13.00
2018-01-24T20:55:38.920Z,19.33
2018-01-24T20:58:07.918Z,12.73
2018-01-24T21:00:35.991Z,13.70
2018-01-24T21:03:03.547Z,13.43
2018-01-24T21:05:31.921Z,10.77
2018-01-24T21:08:00.300Z,9.73
2018-01-24T21:10:28.679Z,11.20
2018-01-24T21:12:56.979Z,14.47
2018-01-24T21:15:25.293Z,8.00
2018-01-24T21:17:53.719Z,17.07
2018-01-24T21:20:22.201Z,16.43
2018-01-24T21:22:50.530Z,31.70
2018-01-24T21:25:18.911Z,24.63
2018-01-24T21:27:47.255Z,29.43
2018-01-24T21:30:27.284Z,20.20
2018-01-24T21:33:07.141Z,28.00
2018-01-24T21:35:46.650Z,16.53
2018-01-24T21:38:15.273Z,8.17
2018-01-24T21:40:43.586Z,9.23
2018-01-24T21:43:11.941Z,11.40
2018-01-24T21:45:40.305Z,8.47
2018-01-24T21:48:08.674Z,8.57
2018-01-24T21:50:37.050Z,10.73
2018-01-24T21:53:04.990Z,12.93
2018-01-24T21:55:33.352Z,12.10
2018-01-24T21:58:01.805Z,14.07
2018-01-24T22:00:30.919Z,10.07
2018-01-24T22:02:58.861Z,20.03
2018-01-24T22:05:26.810Z,8.80
2018-01-24T22:07:55.110Z,11.00
2018-01-24T22:10:23.504Z,29.10
2018-01-24T22:12:51.994Z,21.17
2018-01-24T22:15:21.063Z,12.07
2018-01-24T22:17:48.661Z,18.30
2018-01-24T22:20:17.147Z,19.90
2018-01-24T22:22:45.150Z,17.13
2018-01-24T22:25:13.528Z,20.70
2018-01-24T22:27:41.846Z,26.50
2018-01-24T22:30:10.192Z,21.67
2018-01-24T22:32:38.876Z,21.13
2018-01-24T22:35:06.863Z,19.83
2018-01-24T22:37:35.193Z,12.30
2018-01-24T22:40:03.494Z,12.70
2018-01-24T22:42:31.848Z,11.53
2018-01-24T22:45:00.209Z,8.97
2018-01-24T22:47:28.572Z,18.63
2018-01-24T22:49:56.876Z,14.30
2018-01-24T22:52:25.210Z,11.53
2018-01-24T22:54:53.557Z,9.93
2018-01-24T22:57:21.097Z,9.80
2018-01-24T22:59:49.092Z,7.70
2018-01-24T23:02:17.413Z,10.73
2018-01-24T23:04:45.711Z,11.93
2018-01-24T23:07:14.022Z,9.43
2018-01-24T23:09:42.344Z,10.53
2018-01-24T23:12:11.440Z,8.53
2018-01-24T23:14:39.136Z,7.60
2018-01-24T23:17:07.087Z,8.13
2018-01-24T23:19:35.510Z,6.63
2018-01-24T23:22:03.839Z,6.83
2018-01-24T23:24:32.159Z,9.17
2018-01-24T23:27:00.475Z,8.20
2018-01-24T23:29:29.524Z,10.17
2018-01-24T23:31:57.477Z,10.07
2018-01-24T23:34:25.439Z,9.43
2018-01-24T23:36:53.747Z,9.00
2018-01-24T23:39:22.074Z,9.90
2018-01-24T23:41:51.124Z,7.40
2018-01-24T23:44:19.078Z,12.53
2018-01-24T23:46:47.789Z,9.93
2018-01-24T23:49:15.478Z,8.07
2018-01-24T23:51:44.510Z,8.87
2018-01-24T23:54:12.829Z,7.50
2018-01-24T23:56:40.474Z,6.80
2018-01-24T23:59:08.790Z,7.40
